createdAt,value
2023-05-12T00:01:39.123Z,101843.84
2023-05-12T00:04:07.508Z,101847.63
2023-05-12T00:06:35.660Z,101856.72
2023-05-12T00:09:06.221Z,101848.13
2023-05-12T00:11:34.233Z,101842.69
2023-05-12T00:14:02.250Z,101848.84
2023-05-12T00:16:30.230Z,101854.34
2023-05-12T00:18:58.201Z,101845.69
2023-05-12T00:21:26.130Z,101851.78
2023-05-12T00:23:53.969Z,101848.25
2023-05-12T00:26:23.224Z,101842.13
2023-05-12T00:28:51.871Z,101862.34
2023-05-12T00:31:19.818Z,101855.00
2023-05-12T00:33:47.848Z,101855.50
2023-05-12T00:36:15.729Z,101859.13
2023-05-12T00:38:43.658Z,101859.34
2023-05-12T00:41:11.636Z,101855.88
2023-05-12T00:43:40.866Z,101858.59
2023-05-12T00:46:09.273Z,101855.09
2023-05-12T00:48:37.374Z,101856.94
2023-05-12T00:51:06.221Z,101853.25
2023-05-12T00:53:47.775Z,101857.84
2023-05-12T00:56:17.883Z,101850.88
2023-05-12T00:58:47.437Z,101858.69
2023-05-12T01:01:16.731Z,101868.53
2023-05-12T01:03:46.196Z,101868.72
2023-05-12T01:06:17.792Z,101872.19
2023-05-12T01:08:47.031Z,101871.31
2023-05-12T01:11:14.970Z,101865.13
2023-05-12T01:13:42.819Z,101875.66
2023-05-12T01:16:14.550Z,101869.56
2023-05-12T01:18:49.466Z,101871.94
2023-05-12T01:21:18.163Z,101865.00
2023-05-12T01:23:51.255Z,101872.28
2023-05-12T01:26:20.671Z,101866.13
2023-05-12T01:28:49.434Z,101865.03
2023-05-12T01:31:19.628Z,101866.78
2023-05-12T01:33:49.268Z,101866.91
2023-05-12T01:36:17.369Z,101861.63
2023-05-12T01:38:45.958Z,101873.25
2023-05-12T01:41:13.820Z,101875.72
2023-05-12T01:43:43.214Z,101867.81
2023-05-12T01:46:11.907Z,101868.00
2023-05-12T01:48:41.471Z,101876.72
2023-05-12T01:51:10.260Z,101876.88
2023-05-12T01:53:38.348Z,101877.69
2023-05-12T01:56:06.816Z,101882.97
2023-05-12T01:58:36.046Z,101871.75
2023-05-12T02:01:05.940Z,101886.78
2023-05-12T02:03:34.741Z,101889.22
2023-05-12T02:06:02.814Z,101890.94
2023-05-12T02:08:30.875Z,101894.63
2023-05-12T02:11:06.138Z,101894.63
2023-05-12T02:13:34.323Z,101893.88
2023-05-12T02:16:02.967Z,101897.56
2023-05-12T02:18:32.395Z,101898.53
2023-05-12T02:21:00.557Z,101895.13
2023-05-12T02:23:30.361Z,101905.56
2023-05-12T02:25:58.348Z,101902.94
2023-05-12T02:28:26.286Z,101910.81
2023-05-12T02:30:54.463Z,101905.69
2023-05-12T02:33:23.123Z,101904.81
2023-05-12T02:35:52.631Z,101906.63
2023-05-12T02:38:20.666Z,101912.69
2023-05-12T02:40:49.020Z,101906.63
2023-05-12T02:43:17.057Z,101916.09
2023-05-12T02:45:45.018Z,101913.56
2023-05-12T02:48:13.026Z,101913.50
2023-05-12T02:50:40.936Z,101908.34
2023-05-12T02:53:10.335Z,101906.59
2023-05-12T02:55:38.303Z,101906.63
2023-05-12T02:58:06.184Z,101907.56
2023-05-12T03:00:34.269Z,101905.13
2023-05-12T03:03:03.013Z,101904.38
2023-05-12T03:05:34.502Z,101911.16
2023-05-12T03:08:02.774Z,101904.19
2023-05-12T03:10:32.315Z,101910.34
2023-05-12T03:13:00.339Z,101910.16
2023-05-12T03:15:29.467Z,101898.88
2023-05-12T03:17:57.857Z,101911.13
2023-05-12T03:20:25.763Z,101901.56
2023-05-12T03:22:53.742Z,101905.13
2023-05-12T03:25:21.943Z,101909.41
2023-05-12T03:27:51.314Z,101904.19
2023-05-12T03:30:19.385Z,101908.44
2023-05-12T03:32:47.623Z,101912.09
2023-05-12T03:35:15.961Z,101909.50
2023-05-12T03:37:43.823Z,101911.25
2023-05-12T03:40:12.652Z,101919.06
2023-05-12T03:42:40.544Z,101912.97
2023-05-12T03:45:11.812Z,101919.91
2023-05-12T03:47:40.851Z,101923.41
2023-05-12T03:50:10.129Z,101919.03
2023-05-12T03:52:41.486Z,101924.22
2023-05-12T03:55:10.422Z,101922.53
2023-05-12T03:57:38.566Z,101919.91
2023-05-12T04:00:07.980Z,101922.56
2023-05-12T04:02:46.375Z,101921.69
2023-05-12T04:05:15.563Z,101922.63
2023-05-12T04:07:43.443Z,101922.66
2023-05-12T04:10:11.648Z,101924.44
2023-05-12T04:12:39.509Z,101928.94
2023-05-12T04:15:09.706Z,101936.78
2023-05-12T04:17:37.674Z,101937.69
2023-05-12T04:20:08.541Z,101942.13
2023-05-12T04:22:36.586Z,101941.22
2023-05-12T04:25:04.737Z,101949.03
2023-05-12T04:27:32.715Z,101945.53
2023-05-12T04:30:03.962Z,101949.88
2023-05-12T04:32:36.434Z,101954.16
2023-05-12T04:35:05.300Z,101960.22
2023-05-12T04:37:34.742Z,101959.28
2023-05-12T04:40:02.945Z,101954.09
2023-05-12T04:42:31.340Z,101964.47
2023-05-12T04:44:59.414Z,101960.91
2023-05-12T04:47:27.368Z,101964.38
2023-05-12T04:49:55.269Z,101971.25
2023-05-12T04:52:24.643Z,101979.09
2023-05-12T04:54:54.248Z,101968.47
2023-05-12T04:57:23.198Z,101971.06
2023-05-12T04:59:51.685Z,101970.13
2023-05-12T05:02:19.562Z,101972.63
2023-05-12T05:04:47.862Z,101970.94
2023-05-12T05:07:16.560Z,101973.53
2023-05-12T05:09:44.589Z,101976.06
2023-05-12T05:12:13.871Z,101980.31
2023-05-12T05:14:41.887Z,101987.28
2023-05-12T05:17:11.345Z,101982.06
2023-05-12T05:19:53.461Z,101982.75
2023-05-12T05:22:23.759Z,101985.28
2023-05-12T05:24:51.959Z,101985.16
2023-05-12T05:27:21.529Z,101995.44
2023-05-12T05:29:50.145Z,101993.66
2023-05-12T05:32:18.799Z,101994.38
2023-05-12T05:34:46.697Z,101991.56
2023-05-12T05:37:14.655Z,101993.31
2023-05-12T05:39:42.955Z,102005.41
2023-05-12T05:42:10.793Z,102009.63
2023-05-12T05:44:41.170Z,102009.44
2023-05-12T05:47:09.409Z,102008.50
2023-05-12T05:49:37.537Z,102016.25
2023-05-12T05:52:06.713Z,102020.31
2023-05-12T05:54:34.964Z,102016.00
2023-05-12T05:57:03.225Z,102021.13
2023-05-12T05:59:32.294Z,102016.59
2023-05-12T06:02:01.869Z,102021.66
2023-05-12T06:04:30.067Z,102020.88
2023-05-12T06:06:59.171Z,102024.06
2023-05-12T06:09:28.554Z,102028.09
2023-05-12T06:11:56.782Z,102026.47
2023-05-12T06:14:24.716Z,102031.34
2023-05-12T06:16:52.813Z,102026.97
2023-05-12T06:19:22.343Z,102020.69
2023-05-12T06:21:51.927Z,102028.34
2023-05-12T06:24:19.979Z,102023.47
2023-05-12T06:26:48.129Z,102026.59
2023-05-12T06:29:16.079Z,102022.66
2023-05-12T06:31:44.129Z,102027.94
2023-05-12T06:34:12.203Z,102026.84
2023-05-12T06:36:44.343Z,102023.00
2023-05-12T06:39:14.445Z,102027.00
2023-05-12T06:41:44.418Z,102028.84
2023-05-12T06:44:21.064Z,102032.19
2023-05-12T06:46:53.085Z,102027.38
2023-05-12T06:49:21.613Z,102029.72
2023-05-12T06:51:51.085Z,102037.63
2023-05-12T06:54:18.953Z,102035.00
2023-05-12T06:56:47.197Z,102030.84
2023-05-12T06:59:15.120Z,102030.38
2023-05-12T07:01:43.456Z,102024.75
2023-05-12T07:04:11.705Z,102025.81
2023-05-12T07:06:39.685Z,102021.38
2023-05-12T07:09:08.942Z,102016.47
2023-05-12T07:11:36.848Z,102018.50
2023-05-12T07:14:04.784Z,102016.38
2023-05-12T07:16:32.704Z,102018.78
2023-05-12T07:19:00.880Z,102021.31
2023-05-12T07:21:29.587Z,102021.63
2023-05-12T07:23:57.502Z,102017.53
2023-05-12T07:26:28.968Z,102015.94
2023-05-12T07:28:57.333Z,102010.69
2023-05-12T07:31:25.289Z,102013.09
2023-05-12T07:33:53.531Z,102011.63
2023-05-12T07:36:22.201Z,102008.09
2023-05-12T07:38:50.201Z,102009.72
2023-05-12T07:41:18.830Z,101996.94
2023-05-12T07:43:48.117Z,101998.81
2023-05-12T07:46:16.050Z,102005.47
2023-05-12T07:48:44.111Z,101997.59
2023-05-12T07:51:12.297Z,102000.19
2023-05-12T07:53:40.165Z,101993.69
2023-05-12T07:56:08.416Z,102009.13
2023-05-12T07:58:36.339Z,101998.09
2023-05-12T08:01:06.877Z,102004.69
2023-05-12T08:03:36.080Z,102003.63
2023-05-12T08:06:05.868Z,101997.25
2023-05-12T08:08:33.815Z,102000.56
2023-05-12T08:11:02.043Z,102003.09
2023-05-12T08:13:29.951Z,101995.34
2023-05-12T08:15:58.130Z,101997.00
2023-05-12T08:18:27.855Z,102005.25
2023-05-12T08:20:56.144Z,101995.59
2023-05-12T08:23:25.083Z,102004.72
2023-05-12T08:25:52.996Z,101997.72
2023-05-12T08:28:20.860Z,101999.91
2023-05-12T08:30:48.925Z,102000.16
2023-05-12T08:33:16.930Z,102002.47
2023-05-12T08:35:46.302Z,101997.63
2023-05-12T08:38:14.294Z,101999.38
2023-05-12T08:40:48.067Z,101998.88
2023-05-12T08:43:26.132Z,101996.81
2023-05-12T08:45:57.664Z,101996.50
2023-05-12T08:48:28.218Z,101980.16
2023-05-12T08:50:58.152Z,101993.00
2023-05-12T08:53:27.202Z,101995.69
2023-05-12T08:57:09.314Z,102001.81
2023-05-12T08:58:48.670Z,102001.91
2023-05-12T09:01:18.501Z,101996.00
2023-05-12T09:03:46.752Z,101998.66
2023-05-12T09:06:16.051Z,102001.38
2023-05-12T09:08:43.983Z,101998.94
2023-05-12T09:11:13.634Z,102012.59
2023-05-12T09:13:50.151Z,102000.72
2023-05-12T09:16:20.606Z,102000.72
2023-05-12T09:18:51.550Z,102010.59
2023-05-12T09:21:21.285Z,101993.84
2023-05-12T09:23:56.966Z,101999.03
2023-05-12T09:26:26.207Z,101999.44
2023-05-12T09:28:56.509Z,102004.94
2023-05-12T09:31:27.299Z,101997.78
2023-05-12T09:33:55.616Z,101997.00
2023-05-12T09:36:26.552Z,101998.16
2023-05-12T09:39:04.593Z,101996.94
2023-05-12T09:41:32.712Z,102002.09
2023-05-12T09:44:01.305Z,101994.38
2023-05-12T09:46:29.591Z,101996.06
2023-05-12T09:48:58.366Z,101993.19
2023-05-12T09:51:29.295Z,101991.69
2023-05-12T09:53:58.141Z,101982.63
2023-05-12T09:56:28.988Z,101979.41
2023-05-12T09:58:58.304Z,101972.31
2023-05-12T10:01:27.098Z,101984.06
2023-05-12T10:03:56.924Z,101979.16
2023-05-12T10:06:29.323Z,101986.53
2023-05-12T10:09:06.208Z,101984.91
2023-05-12T10:11:34.809Z,101982.25
2023-05-12T10:14:02.913Z,101985.59
2023-05-12T10:16:31.452Z,101985.91
2023-05-12T10:18:59.923Z,101992.06
2023-05-12T10:21:29.520Z,101986.94
2023-05-12T10:23:58.404Z,101995.97
2023-05-12T10:26:26.412Z,101982.50
2023-05-12T10:28:54.316Z,101960.91
2023-05-12T10:31:23.399Z,101975.31
2023-05-12T10:33:58.946Z,101977.88
2023-05-12T10:36:27.461Z,101955.19
2023-05-12T10:38:57.267Z,101975.13
2023-05-12T10:41:31.774Z,101972.72
2023-05-12T10:43:59.843Z,101965.22
2023-05-12T10:46:28.220Z,101961.34
2023-05-12T10:48:57.346Z,101958.88
2023-05-12T10:51:28.323Z,101952.38
2023-05-12T10:54:00.049Z,101970.75
2023-05-12T10:56:30.096Z,101961.31
2023-05-12T10:59:09.323Z,101952.16
2023-05-12T11:01:38.051Z,101958.53
2023-05-12T11:04:15.723Z,101960.09
2023-05-12T11:06:46.645Z,101951.19
2023-05-12T11:09:17.863Z,101963.44
2023-05-12T11:11:47.601Z,101945.53
2023-05-12T11:14:15.993Z,101948.63
2023-05-12T11:16:44.473Z,101934.28
2023-05-12T11:19:12.841Z,101961.00
2023-05-12T11:21:41.169Z,101950.59
2023-05-12T11:24:13.133Z,101931.78
2023-05-12T11:26:43.603Z,101945.16
2023-05-12T11:29:11.907Z,101945.03
2023-05-12T11:31:39.898Z,101938.53
2023-05-12T11:34:13.218Z,101943.97
2023-05-12T11:36:43.339Z,101928.69
2023-05-12T11:39:15.092Z,101946.50
2023-05-12T11:41:44.689Z,101958.44
2023-05-12T11:44:17.109Z,101950.25
2023-05-12T11:46:56.011Z,101963.81
2023-05-12T11:49:23.975Z,101962.13
2023-05-12T11:51:53.561Z,101964.72
2023-05-12T11:54:22.069Z,101952.22
2023-05-12T11:56:52.420Z,101960.34
2023-05-12T11:59:27.895Z,101964.13
2023-05-12T12:01:55.835Z,101958.47
2023-05-12T12:04:34.750Z,101978.47
2023-05-12T12:07:02.916Z,101973.88
2023-05-12T12:09:35.260Z,101970.78
2023-05-12T12:12:05.732Z,101966.41
2023-05-12T12:14:33.996Z,101975.38
2023-05-12T12:17:02.242Z,101977.72
2023-05-12T12:19:30.268Z,101973.25
2023-05-12T12:21:59.109Z,101980.53
2023-05-12T12:24:27.101Z,101973.78
2023-05-12T12:26:54.954Z,101979.75
2023-05-12T12:29:26.204Z,101982.59
2023-05-12T12:31:54.139Z,101971.78
2023-05-12T12:34:22.096Z,101978.22
2023-05-12T12:36:49.961Z,101998.53
2023-05-12T12:39:19.813Z,101988.78
2023-05-12T12:41:49.148Z,101979.22
2023-05-12T12:44:17.814Z,101995.25
2023-05-12T12:46:47.058Z,101968.56
2023-05-12T12:49:14.979Z,101957.78
2023-05-12T12:51:46.678Z,101966.38
2023-05-12T12:54:15.704Z,101965.94
2023-05-12T12:56:44.147Z,101969.22
2023-05-12T12:59:12.913Z,101970.63
2023-05-12T13:01:40.980Z,101969.63
2023-05-12T13:04:10.494Z,101965.66
2023-05-12T13:06:38.712Z,101959.50
2023-05-12T13:09:06.638Z,101964.63
2023-05-12T13:11:34.506Z,101961.78
2023-05-12T13:14:04.316Z,101965.81
2023-05-12T13:16:32.403Z,101968.75
2023-05-12T13:19:00.459Z,101967.03
2023-05-12T13:21:29.964Z,101977.69
2023-05-12T13:23:57.903Z,101974.03
2023-05-12T13:26:25.964Z,101978.03
2023-05-12T13:28:54.211Z,101986.69
2023-05-12T13:31:22.161Z,101979.66
2023-05-12T13:33:50.642Z,101976.72
2023-05-12T13:36:18.620Z,101977.81
2023-05-12T13:38:48.047Z,101979.09
2023-05-12T13:41:16.055Z,101970.94
2023-05-12T13:43:44.249Z,101971.84
2023-05-12T13:46:12.204Z,101964.13
2023-05-12T13:48:40.110Z,101951.94
2023-05-12T13:51:08.111Z,101963.44
2023-05-12T13:53:40.930Z,101961.44
2023-05-12T13:56:17.452Z,101960.94
2023-05-12T13:58:45.749Z,101959.38
2023-05-12T14:01:13.960Z,101956.81
2023-05-12T14:03:42.147Z,101969.66
2023-05-12T14:06:15.116Z,101957.53
2023-05-12T14:08:43.086Z,101960.25
2023-05-12T14:11:11.488Z,101953.53
2023-05-12T14:13:40.793Z,101968.19
2023-05-12T14:16:12.238Z,101973.25
2023-05-12T14:18:42.596Z,101961.03
2023-05-12T14:21:11.382Z,101959.31
2023-05-12T14:23:39.325Z,101970.03
2023-05-12T14:26:07.585Z,101953.84
2023-05-12T14:28:35.537Z,101959.44
2023-05-12T14:31:04.964Z,101958.16
2023-05-12T14:33:33.016Z,101972.00
2023-05-12T14:36:07.140Z,101942.84
2023-05-12T14:38:36.929Z,101962.84
2023-05-12T14:41:05.402Z,101975.31
2023-05-12T14:43:33.385Z,101965.16
2023-05-12T14:46:02.414Z,101983.63
2023-05-12T14:48:32.046Z,101986.94
2023-05-12T14:51:00.355Z,101981.19
2023-05-12T14:53:28.600Z,101977.75
2023-05-12T14:55:56.958Z,101979.06
2023-05-12T14:58:25.130Z,101976.28
2023-05-12T15:00:53.255Z,101984.22
2023-05-12T15:03:21.655Z,101971.97
2023-05-12T15:08:22.360Z,101980.50
2023-05-12T15:10:50.418Z,101966.75
2023-05-12T15:13:20.439Z,101981.56
2023-05-12T15:15:48.594Z,101966.53
2023-05-12T15:18:16.629Z,101969.56
2023-05-12T15:20:44.573Z,101955.09
2023-05-12T15:23:13.804Z,101965.59
2023-05-12T15:25:41.903Z,101974.69
2023-05-12T15:28:10.088Z,101972.69
2023-05-12T15:30:38.089Z,101967.09
2023-05-12T15:33:06.720Z,101966.38
2023-05-12T15:35:35.183Z,101961.78
2023-05-12T15:38:03.241Z,101961.00
2023-05-12T15:40:32.641Z,101958.28
2023-05-12T15:43:00.663Z,101958.66
2023-05-12T15:45:28.949Z,101961.47
2023-05-12T15:47:57.057Z,101969.59
2023-05-12T15:50:25.228Z,101971.06
2023-05-12T15:52:53.473Z,101964.84
2023-05-12T15:55:21.648Z,101968.75
2023-05-12T15:57:51.149Z,101969.09
2023-05-12T16:00:20.501Z,101968.81
2023-05-12T16:02:49.978Z,101984.25
2023-05-12T16:05:18.329Z,101982.94
2023-05-12T16:07:48.020Z,101981.94
2023-05-12T16:10:16.092Z,101974.25
2023-05-12T16:12:44.070Z,101969.06
2023-05-12T16:15:14.322Z,101946.16
2023-05-12T16:17:42.447Z,101965.91
2023-05-12T16:20:11.544Z,101963.44
2023-05-12T16:22:39.665Z,101970.88
2023-05-12T16:25:08.885Z,101957.41
2023-05-12T16:27:36.991Z,101971.25
2023-05-12T16:30:05.395Z,101977.03
2023-05-12T16:32:34.752Z,101985.09
2023-05-12T16:35:02.617Z,101986.09
2023-05-12T16:37:30.637Z,101986.31
2023-05-12T16:39:58.944Z,101991.66
2023-05-12T16:42:27.436Z,102010.63
2023-05-12T16:44:55.659Z,102006.81
2023-05-12T16:47:23.759Z,102001.59
2023-05-12T16:49:54.498Z,102002.66
2023-05-12T16:52:22.385Z,102009.88
2023-05-12T16:54:50.768Z,102013.22
2023-05-12T16:57:19.138Z,102017.56
2023-05-12T16:59:48.345Z,102019.69
2023-05-12T17:02:16.485Z,102022.50
2023-05-12T17:04:44.711Z,102026.66
2023-05-12T17:07:13.906Z,102018.97
2023-05-12T17:09:42.328Z,102029.97
2023-05-12T17:12:10.914Z,102026.00
2023-05-12T17:14:38.779Z,102029.75
2023-05-12T17:17:06.891Z,102044.50
2023-05-12T17:19:35.452Z,102043.00
2023-05-12T17:22:03.708Z,102040.69
2023-05-12T17:24:33.508Z,102043.31
2023-05-12T17:27:01.647Z,102045.66
2023-05-12T17:29:29.522Z,102052.91
2023-05-12T17:31:57.512Z,102050.06
2023-05-12T17:34:25.351Z,102054.91
2023-05-12T17:36:53.229Z,102068.44
2023-05-12T17:39:21.139Z,102067.53
2023-05-12T17:41:50.723Z,102058.59
2023-05-12T17:44:18.680Z,102071.25
2023-05-12T17:46:46.704Z,102065.06
2023-05-12T17:49:16.891Z,102065.47
2023-05-12T17:51:44.838Z,102057.78
2023-05-12T19:18:29.571Z,102151.66
2023-05-12T19:28:52.911Z,102163.84
2023-05-12T19:31:20.914Z,102153.44
2023-05-12T19:33:48.943Z,102163.72
2023-05-12T19:36:16.954Z,102158.69
2023-05-12T19:38:44.878Z,102162.19
2023-05-12T19:41:12.866Z,102162.06
2023-05-12T19:43:40.804Z,102168.16
2023-05-12T19:46:10.293Z,102161.06
2023-05-12T19:48:38.192Z,102183.25
2023-05-12T19:51:06.089Z,102181.06
2023-05-12T19:53:34.050Z,102173.19
2023-05-12T19:56:01.951Z,102180.31
2023-05-12T19:58:30.725Z,102178.66
2023-05-12T20:00:58.791Z,102176.94
2023-05-12T20:03:28.352Z,102187.41
2023-05-12T20:05:56.446Z,102189.91
2023-05-12T20:08:24.404Z,102183.91
2023-05-12T20:10:52.356Z,102189.91
2023-05-12T20:13:20.301Z,102185.13
2023-05-12T20:15:48.255Z,102183.25
2023-05-12T20:18:16.996Z,102189.38
2023-05-12T20:20:46.336Z,102188.63
2023-05-12T20:23:14.287Z,102179.13
2023-05-12T20:25:42.275Z,102186.88
2023-05-12T20:28:11.764Z,102186.84
2023-05-12T20:30:39.964Z,102187.72
2023-05-12T20:33:08.098Z,102189.59
2023-05-12T20:35:36.196Z,102193.38
2023-05-12T20:38:05.598Z,102186.53
2023-05-12T20:40:34.382Z,102186.44
2023-05-12T20:43:02.446Z,102184.94
2023-05-12T20:45:30.280Z,102188.38
2023-05-12T20:47:58.216Z,102186.63
2023-05-12T20:50:27.671Z,102187.94
2023-05-12T20:52:55.693Z,102190.53
2023-05-12T20:55:26.537Z,102183.69
2023-05-12T20:57:54.452Z,102182.69
2023-05-12T21:00:22.620Z,102184.38
2023-05-12T21:03:06.009Z,102175.63
2023-05-12T21:05:37.068Z,102178.16
2023-05-12T21:08:05.768Z,102174.69
2023-05-12T21:10:39.268Z,102180.75
2023-05-12T21:13:07.289Z,102177.25
2023-05-12T21:15:35.186Z,102179.22
2023-05-12T21:18:03.220Z,102183.59
2023-05-12T21:20:31.359Z,102183.81
2023-05-12T21:22:59.277Z,102184.94
2023-05-12T21:25:27.161Z,102182.63
2023-05-12T21:27:56.432Z,102184.28
2023-05-12T21:30:24.375Z,102192.91
2023-05-12T21:32:52.409Z,102184.06
2023-05-12T21:35:20.626Z,102190.38
2023-05-12T21:37:49.566Z,102194.63
2023-05-12T21:40:17.702Z,102191.03
2023-05-12T21:42:45.786Z,102189.25
2023-05-12T21:45:15.124Z,102194.56
2023-05-12T21:47:43.010Z,102191.19
2023-05-12T21:50:11.800Z,102189.34
2023-05-12T21:52:40.466Z,102193.66
2023-05-12T21:55:12.708Z,102192.72
2023-05-12T21:57:40.612Z,102195.50
2023-05-12T22:00:12.208Z,102197.28
2023-05-12T22:02:43.275Z,102201.59
2023-05-12T22:05:11.306Z,102201.63
2023-05-12T22:07:39.149Z,102198.28
2023-05-12T22:10:07.840Z,102201.78
2023-05-12T22:12:35.773Z,102200.03
2023-05-12T22:15:03.692Z,102200.91
2023-05-12T22:17:31.681Z,102198.31
2023-05-12T22:20:01.022Z,102203.56
2023-05-12T22:22:29.309Z,102200.13
2023-05-12T22:24:57.429Z,102200.25
2023-05-12T22:27:25.340Z,102202.84
2023-05-12T22:29:53.241Z,102206.34
2023-05-12T22:32:21.202Z,102208.97
2023-05-12T22:34:49.106Z,102207.28
2023-05-12T22:37:19.520Z,102210.78
2023-05-12T22:39:47.492Z,102209.03
2023-05-12T22:42:15.347Z,102207.28
2023-05-12T22:44:43.233Z,102206.47
2023-05-12T22:47:11.419Z,102217.91
2023-05-12T22:49:39.452Z,102219.75
2023-05-12T22:52:07.673Z,102215.47
2023-05-12T22:54:37.042Z,102213.78
2023-05-12T22:57:05.297Z,102216.41
2023-05-12T22:59:33.167Z,102215.69
2023-05-12T23:02:01.104Z,102211.41
2023-05-12T23:04:29.015Z,102221.03
2023-05-12T23:06:56.859Z,102208.00
2023-05-12T23:09:24.679Z,102218.47
2023-05-12T23:11:53.924Z,102215.91
2023-05-12T23:14:21.759Z,102222.09
2023-05-12T23:16:49.654Z,102222.97
2023-05-12T23:19:17.612Z,102209.97
2023-05-12T23:21:45.525Z,102210.03
2023-05-12T23:24:13.384Z,102206.56
2023-05-12T23:26:41.516Z,102207.47
2023-05-12T23:29:11.452Z,102213.59
2023-05-12T23:31:39.584Z,102208.38
2023-05-12T23:34:07.514Z,102202.34
2023-05-12T23:36:35.436Z,102207.56
2023-05-12T23:39:04.189Z,102212.84
2023-05-12T23:41:33.999Z,102210.31
2023-05-12T23:44:02.291Z,102207.72
2023-05-12T23:46:31.638Z,102211.22
2023-05-12T23:48:59.604Z,102207.81
2023-05-12T23:51:28.482Z,102211.31
2023-05-12T23:53:56.494Z,102207.84
2023-05-12T23:56:24.333Z,102202.66
2023-05-12T23:58:52.210Z,102210.50
